createdAt,value
2023-04-16T00:01:28.736Z,7.55
2023-04-16T00:03:56.592Z,7.55
2023-04-16T00:06:24.363Z,7.50
2023-04-16T00:08:51.861Z,7.46
2023-04-16T00:11:19.498Z,7.44
2023-04-16T00:13:47.069Z,7.44
2023-04-16T00:16:15.155Z,7.46
2023-04-16T00:18:42.707Z,7.52
2023-04-16T00:21:10.376Z,7.59
2023-04-16T00:23:38.184Z,7.68
2023-04-16T00:26:05.791Z,7.76
2023-04-16T00:28:32.966Z,7.86
2023-04-16T00:31:01.533Z,7.97
2023-04-16T00:33:30.351Z,8.08
2023-04-16T00:35:58.422Z,8.18
2023-04-16T00:38:29.839Z,8.28
2023-04-16T00:40:58.363Z,8.38
2023-04-16T00:43:26.608Z,8.49
2023-04-16T00:45:57.081Z,8.59
2023-04-16T00:48:27.551Z,8.72
2023-04-16T00:50:55.616Z,8.84
2023-04-16T00:53:23.592Z,8.93
2023-04-16T00:55:51.451Z,9.02
2023-04-16T00:58:19.371Z,9.12
2023-04-16T01:00:46.798Z,9.21
2023-04-16T01:03:14.475Z,9.31
2023-04-16T01:05:42.470Z,9.42
2023-04-16T01:08:18.920Z,9.50
2023-04-16T01:10:46.792Z,9.58
2023-04-16T01:13:14.441Z,9.62
2023-04-16T01:15:42.192Z,9.70
2023-04-16T01:18:20.989Z,9.80
2023-04-16T01:20:50.480Z,9.91
2023-04-16T01:23:19.300Z,10.02
2023-04-16T01:25:47.129Z,10.10
2023-04-16T01:28:15.280Z,10.15
2023-04-16T01:30:44.060Z,10.12
2023-04-16T01:33:34.870Z,10.09
2023-04-16T01:36:02.643Z,10.04
2023-04-16T01:38:30.352Z,10.00
2023-04-16T01:40:59.163Z,9.97
2023-04-16T01:43:27.043Z,9.96
2023-04-16T01:46:14.478Z,9.93
2023-04-16T01:48:42.638Z,9.89
2023-04-16T01:51:10.418Z,9.91
2023-04-16T01:53:38.325Z,9.94
2023-04-16T01:56:06.527Z,9.93
2023-04-16T01:58:34.295Z,9.92
2023-04-16T02:01:02.334Z,9.94
2023-04-16T02:03:30.997Z,9.94
2023-04-16T02:05:58.805Z,9.93
2023-04-16T02:08:27.845Z,9.92
2023-04-16T02:10:56.730Z,9.92
2023-04-16T02:13:25.676Z,9.93
2023-04-16T02:15:53.560Z,9.91
2023-04-16T02:18:43.542Z,9.92
2023-04-16T02:21:11.648Z,9.98
2023-04-16T02:23:40.585Z,10.06
2023-04-16T02:26:08.330Z,10.10
2023-04-16T02:28:36.408Z,10.10
2023-04-16T02:31:06.032Z,10.14
2023-04-16T02:33:39.407Z,10.16
2023-04-16T02:36:07.537Z,10.14
2023-04-16T02:38:37.048Z,10.16
2023-04-16T02:41:05.079Z,10.20
2023-04-16T02:43:34.401Z,10.21
2023-04-16T02:46:02.665Z,10.24
2023-04-16T02:48:30.467Z,10.22
2023-04-16T02:50:58.399Z,10.17
2023-04-16T02:53:25.819Z,10.20
2023-04-16T02:55:55.035Z,10.21
2023-04-16T02:58:25.517Z,10.14
2023-04-16T03:00:54.359Z,10.03
2023-04-16T03:03:22.134Z,9.93
2023-04-16T03:05:49.612Z,9.89
2023-04-16T03:08:17.355Z,9.89
2023-04-16T03:10:45.298Z,9.83
2023-04-16T03:13:13.041Z,9.81
2023-04-16T03:15:40.731Z,9.77
2023-04-16T03:18:08.462Z,9.74
2023-04-16T03:20:36.109Z,9.68
2023-04-16T03:23:03.686Z,9.65
2023-04-16T03:25:31.516Z,9.61
2023-04-16T03:27:59.107Z,9.60
2023-04-16T03:30:26.742Z,9.59
2023-04-16T03:32:54.362Z,9.54
2023-04-16T03:35:22.058Z,9.55
2023-04-16T03:37:50.086Z,9.54
2023-04-16T03:40:18.004Z,9.47
2023-04-16T03:42:45.683Z,9.39
2023-04-16T03:45:13.217Z,9.31
2023-04-16T03:47:40.973Z,9.26
2023-04-16T03:50:10.982Z,9.32
2023-04-16T03:52:39.203Z,9.34
2023-04-16T03:55:07.521Z,9.34
2023-04-16T03:57:35.109Z,9.32
2023-04-16T04:00:08.481Z,9.29
2023-04-16T04:02:42.108Z,9.30
2023-04-16T04:05:15.309Z,9.30
2023-04-16T04:07:43.588Z,9.32
2023-04-16T04:10:11.453Z,9.35
2023-04-16T04:12:41.138Z,9.43
2023-04-16T04:15:09.606Z,9.49
2023-04-16T04:17:37.292Z,9.49
2023-04-16T04:20:05.949Z,9.53
2023-04-16T04:22:33.711Z,9.50
2023-04-16T04:25:01.161Z,9.54
2023-04-16T04:27:29.942Z,9.58
2023-04-16T04:29:57.894Z,9.62
2023-04-16T04:32:26.096Z,9.67
2023-04-16T04:34:53.963Z,9.72
2023-04-16T04:37:21.487Z,9.68
2023-04-16T04:39:49.092Z,9.63
2023-04-16T04:42:21.111Z,9.64
2023-04-16T04:44:48.570Z,9.73
2023-04-16T04:47:16.385Z,9.82
2023-04-16T04:49:44.131Z,9.95
2023-04-16T04:52:11.785Z,10.05
2023-04-16T04:54:41.210Z,10.16
2023-04-16T04:57:08.847Z,10.26
2023-04-16T04:59:36.420Z,10.36
2023-04-16T05:02:04.079Z,10.46
2023-04-16T05:04:31.817Z,10.51
2023-04-16T05:06:59.201Z,10.61
2023-04-16T05:09:26.847Z,10.72
2023-04-16T05:11:54.640Z,10.76
2023-04-16T05:14:22.256Z,10.84
2023-04-16T05:16:49.820Z,10.91
2023-04-16T05:19:17.384Z,10.96
2023-04-16T05:21:44.932Z,11.11
2023-04-16T05:24:14.789Z,11.21
2023-04-16T05:26:42.519Z,11.22
2023-04-16T05:29:10.400Z,11.23
2023-04-16T05:31:38.328Z,11.21
2023-04-16T05:34:05.913Z,11.27
2023-04-16T05:36:33.691Z,11.37
2023-04-16T05:39:01.032Z,11.35
2023-04-16T05:41:28.875Z,11.31
2023-04-16T05:43:56.445Z,11.29
2023-04-16T05:46:24.082Z,11.46
2023-04-16T05:48:51.921Z,11.59
2023-04-16T05:51:21.489Z,11.62
2023-04-16T05:53:48.981Z,11.68
2023-04-16T05:56:16.630Z,11.65
2023-04-16T05:58:44.256Z,11.71
2023-04-16T06:01:12.016Z,11.63
2023-04-16T06:03:39.705Z,11.65
2023-04-16T06:06:08.535Z,11.77
2023-04-16T06:08:36.190Z,11.97
2023-04-16T06:11:04.256Z,12.20
2023-04-16T06:13:32.015Z,12.16
2023-04-16T06:15:59.499Z,12.28
2023-04-16T06:18:27.023Z,12.28
2023-04-16T06:20:54.760Z,12.48
2023-04-16T06:23:22.367Z,12.72
2023-04-16T06:25:50.098Z,12.92
2023-04-16T06:28:17.673Z,13.05
2023-04-16T06:30:46.775Z,13.25
2023-04-16T06:33:14.274Z,13.40
2023-04-16T06:35:41.806Z,13.53
2023-04-16T06:38:09.290Z,13.71
2023-04-16T06:40:37.086Z,13.77
2023-04-16T06:43:05.369Z,13.88
2023-04-16T06:45:33.093Z,13.97
2023-04-16T06:48:00.997Z,14.12
2023-04-16T06:50:28.804Z,14.35
2023-04-16T06:52:56.652Z,14.42
2023-04-16T06:55:24.203Z,14.43
2023-04-16T06:57:51.868Z,14.52
2023-04-16T07:00:19.579Z,14.65
2023-04-16T07:02:47.533Z,14.90
2023-04-16T07:05:15.711Z,15.10
2023-04-16T07:07:43.530Z,15.26
2023-04-16T07:10:11.237Z,15.25
2023-04-16T07:12:39.002Z,14.84
2023-04-16T07:15:07.690Z,14.86
2023-04-16T07:17:35.535Z,15.10
2023-04-16T07:20:03.234Z,15.08
2023-04-16T07:22:31.118Z,15.29
2023-04-16T07:24:58.741Z,15.34
2023-04-16T07:27:26.763Z,14.85
2023-04-16T07:29:55.294Z,14.87
2023-04-16T07:32:23.212Z,15.13
2023-04-16T07:34:50.973Z,15.27
2023-04-16T07:37:18.647Z,15.41
2023-04-16T07:39:46.834Z,15.33
2023-04-16T07:42:14.330Z,15.19
2023-04-16T07:44:42.630Z,15.15
2023-04-16T07:47:10.456Z,15.24
2023-04-16T07:49:38.280Z,15.36
2023-04-16T07:52:06.103Z,15.52
2023-04-16T07:54:33.751Z,15.57
2023-04-16T07:57:02.046Z,15.60
2023-04-16T07:59:30.257Z,15.52
2023-04-16T08:01:57.992Z,15.72
2023-04-16T08:04:26.468Z,15.88
2023-04-16T08:06:54.567Z,15.94
2023-04-16T08:09:28.211Z,15.92
2023-04-16T08:11:55.793Z,15.95
2023-04-16T08:14:23.482Z,15.95
2023-04-16T08:16:51.742Z,15.99
2023-04-16T08:19:19.788Z,16.13
2023-04-16T08:21:47.449Z,16.38
2023-04-16T08:24:15.175Z,16.52
2023-04-16T08:26:42.636Z,16.58
2023-04-16T08:29:10.650Z,16.54
2023-04-16T08:31:38.711Z,16.62
2023-04-16T08:34:06.264Z,16.39
2023-04-16T08:36:33.956Z,16.48
2023-04-16T08:39:01.488Z,16.39
2023-04-16T08:41:32.367Z,16.09
2023-04-16T08:44:07.278Z,16.27
2023-04-16T08:46:37.888Z,16.38
2023-04-16T08:49:07.636Z,16.44
2023-04-16T08:51:36.105Z,16.48
2023-04-16T08:54:08.854Z,16.77
2023-04-16T08:56:42.406Z,16.83
2023-04-16T08:59:11.362Z,16.96
2023-04-16T09:01:41.367Z,16.84
2023-04-16T09:04:09.463Z,16.63
2023-04-16T09:06:38.459Z,16.65
2023-04-16T09:09:07.129Z,16.61
2023-04-16T09:11:35.268Z,16.41
2023-04-16T09:14:04.192Z,16.42
2023-04-16T09:16:34.216Z,16.43
2023-04-16T09:19:02.094Z,16.31
2023-04-16T09:21:30.155Z,16.44
2023-04-16T09:23:59.810Z,16.48
2023-04-16T09:26:27.659Z,16.53
2023-04-16T09:28:55.559Z,16.39
2023-04-16T09:31:23.492Z,16.31
2023-04-16T09:34:08.179Z,16.20
2023-04-16T09:36:36.694Z,16.11
2023-04-16T09:39:04.252Z,16.06
2023-04-16T09:41:35.515Z,15.99
2023-04-16T09:44:04.624Z,15.79
2023-04-16T09:46:40.287Z,15.76
2023-04-16T09:49:15.716Z,15.76
2023-04-16T09:51:48.018Z,15.59
2023-04-16T09:54:15.638Z,15.53
2023-04-16T09:56:46.821Z,15.50
2023-04-16T09:59:21.916Z,15.40
2023-04-16T10:01:50.461Z,15.40
2023-04-16T10:04:18.920Z,15.45
2023-04-16T10:07:04.502Z,15.55
2023-04-16T10:09:37.794Z,15.74
2023-04-16T10:12:06.357Z,15.80
2023-04-16T10:14:34.808Z,15.80
2023-04-16T10:17:04.383Z,15.97
2023-04-16T10:19:33.509Z,16.06
2023-04-16T10:22:02.431Z,16.19
2023-04-16T10:24:31.962Z,16.40
2023-04-16T10:26:59.935Z,16.46
2023-04-16T10:29:30.333Z,16.40
2023-04-16T10:31:59.271Z,16.12
2023-04-16T10:34:28.620Z,16.29
2023-04-16T10:36:56.231Z,16.65
2023-04-16T10:39:27.349Z,17.18
2023-04-16T10:42:27.589Z,17.58
2023-04-16T10:44:59.688Z,18.06
2023-04-16T10:47:28.675Z,18.20
2023-04-16T10:49:57.871Z,18.11
2023-04-16T10:52:29.115Z,17.81
2023-04-16T10:54:58.840Z,17.67
2023-04-16T10:57:29.134Z,17.71
2023-04-16T10:59:58.824Z,17.34
2023-04-16T11:02:29.488Z,17.25
2023-04-16T11:04:58.182Z,16.80
2023-04-16T11:07:34.625Z,16.75
2023-04-16T11:10:06.871Z,16.62
2023-04-16T11:12:42.196Z,16.53
2023-04-16T11:15:21.017Z,16.42
2023-04-16T11:17:51.193Z,16.35
2023-04-16T11:20:28.208Z,16.20
2023-04-16T11:22:57.658Z,16.08
2023-04-16T11:25:30.907Z,16.16
2023-04-16T11:27:58.644Z,16.21
2023-04-16T11:30:33.652Z,16.22
2023-04-16T11:33:07.555Z,16.26
2023-04-16T11:35:35.433Z,16.32
2023-04-16T11:38:03.662Z,16.23
2023-04-16T11:40:31.538Z,16.19
2023-04-16T11:43:12.547Z,16.09
2023-04-16T11:45:57.989Z,15.91
2023-04-16T11:48:45.339Z,15.82
2023-04-16T11:51:12.809Z,15.74
2023-04-16T11:53:54.271Z,15.52
2023-04-16T11:56:35.351Z,15.38
2023-04-16T11:59:15.113Z,15.13
2023-04-16T12:01:48.505Z,14.79
2023-04-16T12:04:19.705Z,14.72
2023-04-16T12:07:13.937Z,14.63
2023-04-16T12:09:43.032Z,14.43
2023-04-16T12:12:32.044Z,14.15
2023-04-16T12:15:04.476Z,13.94
2023-04-16T12:17:34.339Z,13.63
2023-04-16T12:20:08.948Z,13.51
2023-04-16T12:22:39.438Z,13.30
2023-04-16T12:25:11.294Z,13.01
2023-04-16T12:27:53.394Z,12.71
2023-04-16T12:30:24.603Z,12.48
2023-04-16T12:33:16.053Z,12.37
2023-04-16T12:35:44.477Z,12.24
2023-04-16T12:38:14.562Z,12.20
2023-04-16T12:40:43.003Z,12.19
2023-04-16T12:43:10.708Z,12.09
2023-04-16T12:45:40.186Z,12.05
2023-04-16T12:48:07.877Z,11.96
2023-04-16T12:50:35.947Z,11.91
2023-04-16T12:53:03.380Z,11.85
2023-04-16T12:55:31.051Z,11.83
2023-04-16T12:57:58.574Z,11.85
2023-04-16T13:00:26.186Z,11.84
2023-04-16T13:02:54.096Z,11.86
2023-04-16T13:05:21.976Z,11.84
2023-04-16T13:07:49.702Z,11.81
2023-04-16T13:10:17.306Z,11.81
2023-04-16T13:12:46.113Z,11.74
2023-04-16T13:15:13.747Z,11.66
2023-04-16T13:17:41.304Z,11.66
2023-04-16T13:20:09.762Z,11.68
2023-04-16T13:22:37.511Z,11.63
2023-04-16T13:25:05.941Z,11.60
2023-04-16T13:27:33.648Z,11.59
2023-04-16T13:30:01.402Z,11.58
2023-04-16T13:32:29.201Z,11.59
2023-04-16T13:34:56.703Z,11.59
2023-04-16T13:37:24.279Z,11.60
2023-04-16T13:39:51.864Z,11.65
2023-04-16T13:42:19.440Z,11.71
2023-04-16T13:44:48.930Z,11.69
2023-04-16T13:47:16.634Z,11.62
2023-04-16T13:49:44.129Z,11.59
2023-04-16T13:52:11.765Z,11.62
2023-04-16T13:54:40.138Z,11.65
2023-04-16T13:57:07.791Z,11.65
2023-04-16T13:59:35.449Z,11.69
2023-04-16T14:02:03.171Z,11.73
2023-04-16T14:04:30.999Z,11.78
2023-04-16T14:06:58.490Z,11.80
2023-04-16T14:09:26.071Z,11.84
2023-04-16T14:11:54.498Z,11.86
2023-04-16T14:14:22.177Z,11.92
2023-04-16T14:16:50.284Z,11.94
2023-04-16T14:19:17.921Z,11.96
2023-04-16T14:21:45.680Z,11.99
2023-04-16T14:24:13.245Z,12.02
2023-04-16T14:26:43.220Z,12.05
2023-04-16T14:29:11.012Z,12.03
2023-04-16T14:31:38.635Z,12.05
2023-04-16T14:34:06.183Z,12.09
2023-04-16T14:36:33.736Z,12.03
2023-04-16T14:39:01.568Z,11.97
2023-04-16T14:41:30.256Z,11.98
2023-04-16T14:43:59.424Z,11.97
2023-04-16T14:46:26.927Z,11.98
2023-04-16T14:48:57.317Z,12.01
2023-04-16T14:51:25.954Z,12.01
2023-04-16T14:53:53.518Z,12.03
2023-04-16T14:56:20.984Z,12.08
2023-04-16T14:58:48.539Z,12.14
2023-04-16T15:01:16.172Z,12.19
2023-04-16T15:03:43.870Z,12.23
2023-04-16T15:06:11.697Z,12.24
2023-04-16T15:08:39.353Z,12.17
2023-04-16T15:11:07.001Z,12.15
2023-04-16T15:13:34.458Z,12.14
2023-04-16T15:16:03.914Z,12.11
2023-04-16T15:18:33.082Z,12.06
2023-04-16T15:21:00.559Z,12.05
2023-04-16T15:23:28.219Z,12.06
2023-04-16T15:25:55.872Z,12.03
2023-04-16T15:28:23.524Z,12.05
2023-04-16T15:30:51.979Z,12.06
2023-04-16T15:33:22.842Z,12.04
2023-04-16T15:35:51.193Z,11.96
2023-04-16T15:38:20.876Z,11.97
2023-04-16T15:40:48.433Z,12.01
2023-04-16T15:43:16.294Z,12.06
2023-04-16T15:45:43.908Z,12.06
2023-04-16T15:48:11.621Z,12.03
2023-04-16T15:50:39.216Z,12.07
2023-04-16T15:53:06.812Z,12.05
2023-04-16T15:55:35.307Z,11.98
2023-04-16T15:58:03.094Z,11.96
2023-04-16T16:00:30.695Z,11.93
2023-04-16T16:02:58.196Z,11.87
2023-04-16T16:05:26.703Z,11.83
2023-04-16T16:07:54.390Z,11.80
2023-04-16T16:10:22.266Z,11.76
2023-04-16T16:12:50.338Z,11.73
2023-04-16T16:15:18.063Z,11.75
2023-04-16T16:17:45.701Z,11.70
2023-04-16T16:20:14.146Z,11.64
2023-04-16T16:22:44.737Z,11.60
2023-04-16T16:25:12.480Z,11.56
2023-04-16T16:27:41.546Z,11.57
2023-04-16T16:30:09.926Z,11.55
2023-04-16T16:32:40.418Z,11.54
2023-04-16T16:35:08.991Z,11.51
2023-04-16T16:37:37.116Z,11.53
2023-04-16T16:40:05.282Z,11.56
2023-04-16T16:42:32.977Z,11.60
2023-04-16T16:45:04.630Z,11.59
2023-04-16T16:47:32.957Z,11.52
2023-04-16T16:50:02.782Z,11.46
2023-04-16T16:52:30.768Z,11.45
2023-04-16T16:54:58.218Z,11.44
2023-04-16T16:57:25.917Z,11.44
2023-04-16T16:59:56.516Z,11.44
2023-04-16T17:02:24.271Z,11.42
2023-04-16T17:04:52.320Z,11.40
2023-04-16T17:07:20.448Z,11.33
2023-04-16T17:09:47.802Z,11.25
2023-04-16T17:12:15.519Z,11.23
2023-04-16T17:14:43.213Z,11.25
2023-04-16T17:17:11.203Z,11.27
2023-04-16T17:19:38.706Z,11.28
2023-04-16T17:22:06.172Z,11.29
2023-04-16T17:24:33.745Z,11.33
2023-04-16T17:27:01.636Z,11.34
2023-04-16T17:29:30.125Z,11.33
2023-04-16T17:31:58.324Z,11.28
2023-04-16T17:34:25.988Z,11.30
2023-04-16T17:36:53.528Z,11.32
2023-04-16T17:39:21.178Z,11.32
2023-04-16T17:41:53.662Z,11.35
2023-04-16T17:44:22.565Z,11.38
2023-04-16T17:46:50.109Z,11.43
2023-04-16T17:49:17.797Z,11.44
2023-04-16T17:51:45.434Z,11.45
2023-04-16T17:54:13.032Z,11.42
2023-04-16T17:56:40.880Z,11.35
2023-04-16T17:59:08.243Z,11.31
2023-04-16T18:01:35.907Z,11.35
2023-04-16T18:04:03.617Z,11.34
2023-04-16T18:06:31.362Z,11.35
2023-04-16T18:08:58.942Z,11.32
2023-04-16T18:11:26.627Z,11.33
2023-04-16T18:13:54.164Z,11.37
2023-04-16T18:16:22.198Z,11.39
2023-04-16T18:18:49.940Z,11.42
2023-04-16T18:21:17.602Z,11.38
2023-04-16T18:23:45.426Z,11.34
2023-04-16T18:26:12.998Z,11.35
2023-04-16T18:28:40.538Z,11.34
2023-04-16T18:31:08.164Z,11.37
2023-04-16T18:33:53.410Z,11.34
2023-04-16T18:36:22.805Z,11.39
2023-04-16T18:39:15.005Z,11.42
2023-04-16T18:41:39.644Z,11.41
2023-04-16T18:44:07.265Z,11.45
2023-04-16T18:46:34.800Z,11.43
2023-04-16T18:49:02.457Z,11.46
2023-04-16T18:51:30.319Z,11.43
2023-04-16T18:53:58.289Z,11.42
2023-04-16T18:56:25.824Z,11.40
2023-04-16T18:58:53.677Z,11.41
2023-04-16T19:01:21.441Z,11.32
2023-04-16T19:03:49.245Z,11.21
2023-04-16T19:06:16.850Z,11.21
2023-04-16T19:08:44.436Z,11.21
2023-04-16T19:11:12.065Z,11.23
2023-04-16T19:13:39.641Z,11.20
2023-04-16T19:16:10.883Z,11.14
2023-04-16T19:18:38.969Z,11.14
2023-04-16T19:21:06.726Z,11.15
2023-04-16T19:23:34.294Z,11.13
2023-04-16T19:26:01.893Z,11.09
2023-04-16T19:28:29.354Z,11.07
2023-04-16T19:30:57.016Z,11.07
2023-04-16T19:33:24.660Z,11.05
2023-04-16T19:35:52.332Z,11.04
2023-04-16T19:38:19.931Z,11.03
2023-04-16T19:40:48.549Z,10.99
2023-04-16T19:43:16.098Z,10.93
2023-04-16T19:45:45.712Z,10.91
2023-04-16T19:48:13.880Z,10.87
2023-04-16T19:50:42.131Z,10.90
2023-04-16T19:53:11.171Z,10.92
2023-04-16T19:55:39.769Z,10.94
2023-04-16T19:58:08.376Z,10.89
2023-04-16T20:00:38.527Z,10.82
2023-04-16T20:03:06.469Z,10.79
2023-04-16T20:05:34.157Z,10.80
2023-04-16T20:08:01.672Z,10.79
2023-04-16T20:10:30.743Z,10.76
2023-04-16T20:12:58.184Z,10.76
2023-04-16T20:15:25.950Z,10.77
2023-04-16T20:17:54.789Z,10.79
2023-04-16T20:20:23.247Z,10.67
2023-04-16T20:22:50.860Z,10.63
2023-04-16T20:25:19.159Z,10.63
2023-04-16T20:27:47.028Z,10.60
2023-04-16T20:30:14.779Z,10.66
2023-04-16T20:32:42.532Z,10.60
2023-04-16T20:35:10.725Z,10.61
2023-04-16T20:37:39.253Z,10.63
2023-04-16T20:40:08.806Z,10.64
2023-04-16T20:42:36.162Z,10.68
2023-04-16T20:45:04.326Z,10.72
2023-04-16T20:47:34.050Z,10.71
2023-04-16T20:50:03.198Z,10.71
2023-04-16T20:52:30.494Z,10.67
2023-04-16T20:54:57.904Z,10.67
2023-04-16T20:57:27.588Z,10.66
2023-04-16T20:59:55.918Z,10.64
2023-04-16T21:02:23.824Z,10.64
2023-04-16T21:04:51.808Z,10.62
2023-04-16T21:07:19.439Z,10.60
2023-04-16T21:09:46.806Z,10.62
2023-04-16T21:12:14.484Z,10.59
2023-04-16T21:14:42.050Z,10.61
2023-04-16T21:17:09.736Z,10.63
2023-04-16T21:19:37.404Z,10.59
2023-04-16T21:22:05.208Z,10.56
2023-04-16T21:24:32.890Z,10.50
2023-04-16T21:27:01.322Z,10.46
2023-04-16T21:29:29.137Z,10.47
2023-04-16T21:31:56.970Z,10.50
2023-04-16T21:34:24.418Z,10.51
2023-04-16T21:36:51.964Z,10.48
2023-04-16T21:39:21.101Z,10.45
2023-04-16T21:41:48.666Z,10.45
2023-04-16T21:44:16.082Z,10.46
2023-04-16T21:46:43.582Z,10.40
2023-04-16T21:49:11.594Z,10.39
2023-04-16T21:51:40.646Z,10.35
2023-04-16T21:54:08.346Z,10.38
2023-04-16T21:56:35.853Z,10.35
2023-04-16T21:59:03.480Z,10.33
2023-04-16T22:01:31.040Z,10.37
2023-04-16T22:03:58.777Z,10.39
2023-04-16T22:06:26.741Z,10.47
2023-04-16T22:08:54.121Z,10.49
2023-04-16T22:11:22.108Z,10.45
2023-04-16T22:13:49.711Z,10.43
2023-04-16T22:16:17.335Z,10.40
2023-04-16T22:18:45.812Z,10.38
2023-04-16T22:21:13.616Z,10.31
2023-04-16T22:23:41.382Z,10.34
2023-04-16T22:26:09.071Z,10.43
2023-04-16T22:28:36.601Z,10.51
2023-04-16T22:31:04.200Z,10.55
2023-04-16T22:33:31.919Z,10.61
2023-04-16T22:36:00.236Z,10.65
2023-04-16T22:38:27.706Z,10.71
2023-04-16T22:40:55.338Z,10.67
2023-04-16T22:43:22.969Z,10.63
2023-04-16T22:46:01.915Z,10.63
2023-04-16T22:48:31.033Z,10.63
2023-04-16T22:50:58.517Z,10.65
2023-04-16T22:53:26.167Z,10.62
2023-04-16T22:55:53.684Z,10.52
2023-04-16T22:58:21.388Z,10.46
2023-04-16T23:00:51.478Z,10.45
2023-04-16T23:03:18.985Z,10.41
2023-04-16T23:05:46.534Z,10.40
2023-04-16T23:08:13.932Z,10.38
2023-04-16T23:10:41.432Z,10.32
2023-04-16T23:13:09.008Z,10.25
2023-04-16T23:15:36.560Z,10.22
2023-04-16T23:18:04.167Z,10.20
2023-04-16T23:20:31.475Z,10.20
2023-04-16T23:22:58.875Z,10.16
2023-04-16T23:25:26.454Z,10.12
2023-04-16T23:27:54.117Z,10.14
2023-04-16T23:30:21.693Z,10.11
2023-04-16T23:32:49.333Z,10.09
2023-04-16T23:35:22.235Z,10.03
2023-04-16T23:37:49.718Z,10.01
2023-04-16T23:40:17.335Z,10.00
2023-04-16T23:42:44.884Z,10.00
2023-04-16T23:45:12.392Z,9.98
2023-04-16T23:47:40.258Z,9.99
2023-04-16T23:50:08.102Z,10.00
2023-04-16T23:52:35.869Z,9.99
2023-04-16T23:55:03.893Z,9.96
2023-04-16T23:57:31.406Z,9.95
2023-04-16T23:59:59.018Z,9.88
